createdAt,value
2019-01-24T00:01:25.608Z,99675.95
2019-01-24T00:03:55.533Z,99678.19
2019-01-24T00:06:25.139Z,99668.89
2019-01-24T00:08:54.632Z,99676.42
2019-01-24T00:11:24.126Z,99662.86
2019-01-24T00:13:53.667Z,99658.63
2019-01-24T00:16:23.250Z,99656.73
2019-01-24T00:18:53.090Z,99658.61
2019-01-24T00:21:22.630Z,99667.47
2019-01-24T00:23:52.114Z,99665.93
2019-01-24T00:26:21.646Z,99677.60
2019-01-24T00:28:51.160Z,99678.19
2019-01-24T00:31:20.706Z,99681.02
2019-01-24T00:33:50.249Z,99683.39
2019-01-24T00:36:19.786Z,99675.61
2019-01-24T00:38:49.330Z,99673.72
2019-01-24T00:41:18.900Z,99669.36
2019-01-24T00:43:48.410Z,99670.18
2019-01-24T00:46:17.928Z,99671.70
2019-01-24T00:48:47.493Z,99679.73
2019-01-24T00:51:17.020Z,99675.94
2019-01-24T00:53:46.549Z,99670.42
2019-01-24T00:56:16.120Z,99665.33
2019-01-24T00:58:45.630Z,99657.89
2019-01-24T01:01:15.141Z,99648.38
2019-01-24T01:03:44.705Z,99648.58
2019-01-24T01:06:14.221Z,99655.20
2019-01-24T01:08:43.725Z,99656.13
2019-01-24T01:11:13.282Z,99651.51
2019-01-24T01:13:42.799Z,99641.70
2019-01-24T01:16:12.430Z,99637.06
2019-01-24T01:18:41.987Z,99635.48
2019-01-24T01:21:11.647Z,99632.83
2019-01-24T01:23:41.163Z,99627.84
2019-01-24T01:26:10.707Z,99624.06
2019-01-24T01:28:40.201Z,99632.11
2019-01-24T01:31:09.684Z,99630.95
2019-01-24T01:33:39.310Z,99630.13
2019-01-24T01:36:08.802Z,99617.38
2019-01-24T01:38:38.295Z,99603.38
2019-01-24T01:41:07.826Z,99602.77
2019-01-24T01:43:37.320Z,99605.13
2019-01-24T01:46:06.810Z,99599.48
2019-01-24T01:48:36.340Z,99596.63
2019-01-24T01:51:05.833Z,99594.17
2019-01-24T01:53:35.413Z,99596.66
2019-01-24T01:56:05.146Z,99592.27
2019-01-24T01:58:34.625Z,99589.86
2019-01-24T02:01:04.111Z,99593.36
2019-01-24T02:03:33.673Z,99583.88
2019-01-24T02:06:03.264Z,99579.59
2019-01-24T02:08:32.751Z,99580.17
2019-01-24T02:11:02.274Z,99582.85
2019-01-24T02:13:31.762Z,99578.88
2019-01-24T02:16:01.249Z,99580.39
2019-01-24T02:18:30.794Z,99571.66
2019-01-24T02:21:00.304Z,99574.13
2019-01-24T02:23:29.785Z,99569.08
2019-01-24T02:25:59.313Z,99559.44
2019-01-24T02:28:28.797Z,99563.47
2019-01-24T02:30:58.290Z,99561.62
2019-01-24T02:33:27.835Z,99563.61
2019-01-24T02:35:57.350Z,99558.80
2019-01-24T02:38:27.047Z,99556.32
2019-01-24T02:40:56.712Z,99554.24
2019-01-24T02:43:26.224Z,99558.95
2019-01-24T02:45:55.761Z,99551.52
2019-01-24T02:48:25.330Z,99554.70
2019-01-24T02:50:54.841Z,99556.12
2019-01-24T02:53:24.386Z,99556.51
2019-01-24T02:55:53.942Z,99554.53
2019-01-24T02:58:23.458Z,99553.00
2019-01-24T03:00:52.978Z,99543.07
2019-01-24T03:03:22.539Z,99541.00
2019-01-24T03:05:52.034Z,99540.07
2019-01-24T03:08:21.564Z,99535.74
2019-01-24T03:10:51.048Z,99532.12
2019-01-24T03:13:20.552Z,99534.59
2019-01-24T03:15:51.437Z,99531.12
2019-01-24T03:18:20.925Z,99533.89
2019-01-24T03:20:50.421Z,99528.12
2019-01-24T03:23:19.972Z,99524.55
2019-01-24T03:25:49.455Z,99527.27
2019-01-24T03:28:18.945Z,99520.23
2019-01-24T03:30:48.479Z,99518.63
2019-01-24T03:33:17.966Z,99510.73
2019-01-24T03:35:47.456Z,99505.69
2019-01-24T03:38:16.983Z,99502.39
2019-01-24T03:40:46.573Z,99499.36
2019-01-24T03:43:16.202Z,99504.08
2019-01-24T03:45:45.732Z,99504.91
2019-01-24T03:48:15.224Z,99506.44
2019-01-24T03:50:44.711Z,99511.36
2019-01-24T03:53:14.240Z,99514.09
2019-01-24T03:55:43.757Z,99509.94
2019-01-24T03:58:13.322Z,99512.53
2019-01-24T04:00:42.864Z,99520.69
2019-01-24T04:03:12.368Z,99527.83
2019-01-24T04:05:41.863Z,99530.30
2019-01-24T04:08:11.410Z,99537.34
2019-01-24T04:10:40.915Z,99538.38
2019-01-24T04:13:10.428Z,99538.61
2019-01-24T04:15:40.088Z,99532.11
2019-01-24T04:18:10.059Z,99531.97
2019-01-24T04:20:39.591Z,99530.91
2019-01-24T04:23:09.107Z,99531.47
2019-01-24T04:25:38.686Z,99534.46
2019-01-24T04:28:08.223Z,99530.34
2019-01-24T04:30:37.747Z,99520.59
2019-01-24T04:33:08.829Z,99522.51
2019-01-24T04:35:38.354Z,99517.69
2019-01-24T04:38:07.888Z,99514.61
2019-01-24T04:40:37.445Z,99508.25
2019-01-24T04:43:07.043Z,99500.45
2019-01-24T04:45:36.577Z,99500.55
2019-01-24T04:48:06.186Z,99499.59
2019-01-24T04:50:35.753Z,99498.14
2019-01-24T04:53:05.454Z,99495.05
2019-01-24T04:55:34.980Z,99500.13
2019-01-24T04:58:04.590Z,99506.95
2019-01-24T05:00:34.094Z,99506.86
2019-01-24T05:03:03.666Z,99505.53
2019-01-24T05:05:33.212Z,99505.53
2019-01-24T05:08:02.749Z,99505.77
2019-01-24T05:10:32.333Z,99494.69
2019-01-24T05:13:02.044Z,99485.78
2019-01-24T05:15:31.588Z,99472.58
2019-01-24T05:18:01.128Z,99481.06
2019-01-24T05:20:30.632Z,99484.16
2019-01-24T05:23:00.127Z,99476.34
2019-01-24T05:25:30.919Z,99475.91
2019-01-24T05:28:00.420Z,99480.16
2019-01-24T05:30:30.231Z,99481.72
2019-01-24T05:33:00.996Z,99494.09
2019-01-24T05:35:34.623Z,99494.58
2019-01-24T05:38:01.711Z,99485.03
2019-01-24T05:40:31.247Z,99475.91
2019-01-24T05:43:00.751Z,99460.00
2019-01-24T05:45:30.248Z,99459.53
2019-01-24T05:47:59.821Z,99459.17
2019-01-24T05:50:29.326Z,99453.66
2019-01-24T05:52:58.965Z,99455.69
2019-01-24T05:55:28.518Z,99445.34
2019-01-24T05:57:58.308Z,99448.88
2019-01-24T06:00:39.527Z,99451.13
2019-01-24T06:03:10.528Z,99455.27
2019-01-24T06:05:41.914Z,99457.97
2019-01-24T06:08:11.267Z,99464.30
2019-01-24T06:10:40.819Z,99457.80
2019-01-24T06:13:10.410Z,99456.72
2019-01-24T06:15:39.943Z,99458.53
2019-01-24T06:18:09.472Z,99456.74
2019-01-24T06:20:39.039Z,99450.00
2019-01-24T06:23:08.600Z,99455.73
2019-01-24T06:25:38.245Z,99462.88
2019-01-24T06:28:07.751Z,99466.75
2019-01-24T06:30:37.252Z,99469.30
2019-01-24T06:33:06.791Z,99466.99
2019-01-24T06:35:36.296Z,99461.36
2019-01-24T06:38:06.309Z,99456.28
2019-01-24T06:40:35.865Z,99461.27
2019-01-24T06:43:05.369Z,99461.64
2019-01-24T06:45:34.977Z,99456.33
2019-01-24T06:48:05.952Z,99462.45
2019-01-24T06:50:35.502Z,99465.05
2019-01-24T06:53:05.126Z,99468.60
2019-01-24T06:55:34.808Z,99462.64
2019-01-24T06:58:04.398Z,99465.69
2019-01-24T07:00:34.922Z,99452.67
2019-01-24T07:03:04.581Z,99454.42
2019-01-24T07:05:34.093Z,99454.52
2019-01-24T07:08:03.609Z,99453.42
2019-01-24T07:10:33.249Z,99455.30
2019-01-24T07:13:03.934Z,99453.75
2019-01-24T07:15:33.657Z,99452.82
2019-01-24T07:18:03.171Z,99458.81
2019-01-24T07:20:32.805Z,99461.44
2019-01-24T07:23:02.300Z,99454.25
2019-01-24T07:25:31.948Z,99458.45
2019-01-24T07:28:01.444Z,99459.51
2019-01-24T07:30:30.997Z,99457.25
2019-01-24T07:33:00.493Z,99451.84
2019-01-24T07:35:30.034Z,99453.47
2019-01-24T07:37:59.528Z,99454.06
2019-01-24T07:40:29.031Z,99461.69
2019-01-24T07:42:58.579Z,99459.51
2019-01-24T07:45:33.590Z,99458.36
2019-01-24T07:48:04.363Z,99456.00
2019-01-24T07:50:33.956Z,99454.02
2019-01-24T07:53:03.456Z,99458.90
2019-01-24T07:55:33.005Z,99469.70
2019-01-24T07:58:02.503Z,99468.65
2019-01-24T08:00:32.716Z,99471.64
2019-01-24T08:03:03.495Z,99475.05
2019-01-24T08:05:33.026Z,99481.58
2019-01-24T08:08:02.699Z,99479.36
2019-01-24T08:10:32.543Z,99472.98
2019-01-24T08:13:02.108Z,99480.32
2019-01-24T08:15:31.662Z,99490.25
2019-01-24T08:18:01.270Z,99490.63
2019-01-24T08:20:30.828Z,99485.18
2019-01-24T08:23:00.328Z,99491.17
2019-01-24T08:25:29.831Z,99487.86
2019-01-24T08:27:59.389Z,99481.06
2019-01-24T08:30:31.698Z,99472.48
2019-01-24T08:33:01.344Z,99467.54
2019-01-24T08:35:30.931Z,99472.38
2019-01-24T08:38:00.415Z,99463.67
2019-01-24T08:40:29.958Z,99466.89
2019-01-24T08:42:59.463Z,99468.09
2019-01-24T08:45:29.128Z,99461.89
2019-01-24T08:47:58.671Z,99471.57
2019-01-24T08:50:28.577Z,99463.11
2019-01-24T08:52:58.066Z,99460.78
2019-01-24T08:55:32.614Z,99460.55
2019-01-24T08:58:02.228Z,99460.92
2019-01-24T09:00:31.944Z,99466.20
2019-01-24T09:03:01.495Z,99459.59
2019-01-24T09:05:31.064Z,99459.36
2019-01-24T09:08:00.575Z,99467.02
2019-01-24T09:10:32.655Z,99451.49
2019-01-24T09:13:02.145Z,99458.58
2019-01-24T09:15:32.937Z,99455.62
2019-01-24T09:18:02.729Z,99465.19
2019-01-24T09:20:32.274Z,99455.59
2019-01-24T09:23:02.013Z,99464.06
2019-01-24T09:25:31.688Z,99458.41
2019-01-24T09:28:02.468Z,99450.39
2019-01-24T09:30:32.117Z,99448.16
2019-01-24T09:33:01.710Z,99453.25
2019-01-24T09:35:31.205Z,99457.11
2019-01-24T09:38:00.761Z,99452.28
2019-01-24T09:40:30.279Z,99452.52
2019-01-24T09:42:59.785Z,99449.58
2019-01-24T09:45:30.431Z,99453.02
2019-01-24T09:48:02.579Z,99446.17
2019-01-24T09:50:32.325Z,99449.59
2019-01-24T09:53:01.899Z,99448.99
2019-01-24T09:55:31.395Z,99438.53
2019-01-24T09:58:00.884Z,99435.11
2019-01-24T10:00:32.536Z,99434.28
2019-01-24T10:03:02.364Z,99426.63
2019-01-24T10:05:31.881Z,99425.81
2019-01-24T10:08:01.554Z,99421.57
2019-01-24T10:10:31.046Z,99417.20
2019-01-24T10:13:00.547Z,99415.53
2019-01-24T10:15:30.279Z,99416.83
2019-01-24T10:17:59.775Z,99415.17
2019-01-24T10:20:29.667Z,99396.22
2019-01-24T10:22:59.489Z,99397.04
2019-01-24T10:25:31.951Z,99399.38
2019-01-24T10:28:01.557Z,99398.58
2019-01-24T10:30:31.303Z,99390.27
2019-01-24T10:33:01.108Z,99389.47
2019-01-24T10:35:30.598Z,99381.45
2019-01-24T10:38:00.199Z,99373.77
2019-01-24T10:40:31.520Z,99368.63
2019-01-24T10:43:01.176Z,99360.95
2019-01-24T10:45:30.716Z,99356.62
2019-01-24T10:48:00.372Z,99347.44
2019-01-24T10:50:30.075Z,99356.33
2019-01-24T10:52:59.592Z,99354.20
2019-01-24T10:55:29.640Z,99357.92
2019-01-24T10:58:06.038Z,99356.53
2019-01-24T11:00:40.901Z,99354.00
2019-01-24T11:03:21.022Z,99349.91
2019-01-24T11:05:50.516Z,99342.90
2019-01-24T11:08:20.020Z,99348.19
2019-01-24T11:10:50.571Z,99337.87
2019-01-24T11:13:20.086Z,99338.41
2019-01-24T11:15:52.095Z,99349.14
2019-01-24T11:18:21.701Z,99338.76
2019-01-24T11:20:51.400Z,99334.04
2019-01-24T11:23:21.025Z,99342.66
2019-01-24T11:25:50.533Z,99342.67
2019-01-24T11:28:20.099Z,99338.11
2019-01-24T11:30:50.902Z,99339.77
2019-01-24T11:33:20.483Z,99336.95
2019-01-24T11:35:49.974Z,99334.58
2019-01-24T11:38:20.095Z,99326.44
2019-01-24T11:40:49.592Z,99333.89
2019-01-24T11:43:19.297Z,99326.02
2019-01-24T11:45:48.875Z,99325.87
2019-01-24T11:48:18.396Z,99331.66
2019-01-24T11:50:48.015Z,99325.08
2019-01-24T11:53:17.615Z,99329.08
2019-01-24T11:55:47.113Z,99324.51
2019-01-24T11:58:16.662Z,99317.06
2019-01-24T12:00:55.297Z,99319.52
2019-01-24T12:03:25.292Z,99318.98
2019-01-24T12:05:56.101Z,99318.12
2019-01-24T12:08:25.617Z,99313.08
2019-01-24T12:10:55.173Z,99316.25
2019-01-24T12:13:24.761Z,99314.23
2019-01-24T12:15:54.262Z,99312.61
2019-01-24T12:18:23.818Z,99303.39
2019-01-24T12:20:53.517Z,99305.05
2019-01-24T12:23:23.007Z,99319.45
2019-01-24T12:25:52.548Z,99318.98
2019-01-24T12:28:22.058Z,99317.58
2019-01-24T12:30:51.555Z,99323.70
2019-01-24T12:33:21.107Z,99321.58
2019-01-24T12:35:50.779Z,99318.98
2019-01-24T12:38:20.381Z,99322.66
2019-01-24T12:40:49.867Z,99322.66
2019-01-24T12:43:19.371Z,99326.18
2019-01-24T12:45:48.906Z,99325.47
2019-01-24T12:48:18.415Z,99320.78
2019-01-24T12:50:47.920Z,99328.91
2019-01-24T12:53:17.463Z,99325.72
2019-01-24T12:55:47.010Z,99331.39
2019-01-24T12:58:16.524Z,99324.92
2019-01-24T13:00:46.027Z,99331.03
2019-01-24T13:03:15.584Z,99334.31
2019-01-24T13:05:45.089Z,99340.20
2019-01-24T13:08:14.609Z,99340.92
2019-01-24T13:10:44.137Z,99347.15
2019-01-24T13:13:13.711Z,99349.16
2019-01-24T13:15:43.227Z,99346.11
2019-01-24T13:18:12.796Z,99347.51
2019-01-24T13:20:42.376Z,99349.05
2019-01-24T13:23:11.881Z,99361.53
2019-01-24T13:25:41.589Z,99372.38
2019-01-24T13:28:11.205Z,99378.86
2019-01-24T13:30:40.699Z,99374.49
2019-01-24T13:33:10.243Z,99373.78
2019-01-24T13:35:39.742Z,99378.03
2019-01-24T13:38:09.356Z,99376.13
2019-01-24T13:40:38.911Z,99378.12
2019-01-24T13:43:08.989Z,99382.59
2019-01-24T13:45:40.076Z,99365.06
2019-01-24T13:48:09.684Z,99375.78
2019-01-24T13:50:39.186Z,99375.65
2019-01-24T13:53:09.235Z,99378.00
2019-01-24T13:55:39.513Z,99390.94
2019-01-24T13:58:09.556Z,99398.70
2019-01-24T14:00:40.923Z,99380.82
2019-01-24T14:03:42.077Z,99390.48
2019-01-24T14:06:08.470Z,99390.00
2019-01-24T14:08:37.962Z,99388.22
2019-01-24T14:11:07.467Z,99381.29
2019-01-24T14:13:37.013Z,99392.95
2019-01-24T14:16:06.644Z,99393.64
2019-01-24T14:18:36.310Z,99391.28
2019-01-24T14:21:06.380Z,99390.92
2019-01-24T14:23:35.902Z,99389.97
2019-01-24T14:26:05.563Z,99393.03
2019-01-24T14:28:35.063Z,99396.45
2019-01-24T14:31:06.219Z,99396.32
2019-01-24T14:33:35.721Z,99394.43
2019-01-24T14:36:06.398Z,99397.23
2019-01-24T14:38:37.181Z,99397.48
2019-01-24T14:41:06.693Z,99389.47
2019-01-24T14:43:36.237Z,99400.17
2019-01-24T14:46:05.863Z,99417.02
2019-01-24T14:48:35.424Z,99405.14
2019-01-24T14:51:04.974Z,99403.72
2019-01-24T14:53:34.495Z,99405.73
2019-01-24T14:56:04.350Z,99407.03
2019-01-24T14:58:33.986Z,99405.95
2019-01-24T15:01:10.494Z,99401.81
2019-01-24T15:03:40.067Z,99400.38
2019-01-24T15:06:09.750Z,99404.86
2019-01-24T15:08:39.270Z,99407.81
2019-01-24T15:11:08.916Z,99401.21
2019-01-24T15:13:38.430Z,99396.05
2019-01-24T15:16:08.067Z,99410.73
2019-01-24T15:18:38.499Z,99410.88
2019-01-24T15:21:08.248Z,99412.77
2019-01-24T15:23:37.852Z,99421.25
2019-01-24T15:26:07.557Z,99424.67
2019-01-24T15:28:37.104Z,99419.63
2019-01-24T15:31:06.616Z,99424.92
2019-01-24T15:33:36.118Z,99425.98
2019-01-24T15:36:05.971Z,99433.42
2019-01-24T15:38:36.849Z,99438.94
2019-01-24T15:41:06.776Z,99435.19
2019-01-24T15:43:36.348Z,99441.20
2019-01-24T15:46:06.111Z,99440.02
2019-01-24T15:48:42.251Z,99448.16
2019-01-24T15:51:06.964Z,99446.03
2019-01-24T15:53:36.506Z,99448.88
2019-01-24T15:56:06.100Z,99460.64
2019-01-24T15:58:37.183Z,99465.48
2019-01-24T16:01:06.812Z,99465.81
2019-01-24T16:03:36.306Z,99453.94
2019-01-24T16:06:06.872Z,99468.28
2019-01-24T16:08:36.428Z,99471.35
2019-01-24T16:11:06.455Z,99480.30
2019-01-24T16:13:35.951Z,99477.96
2019-01-24T16:16:06.213Z,99487.59
2019-01-24T16:18:35.734Z,99489.72
2019-01-24T16:21:05.337Z,99487.73
2019-01-24T16:23:34.916Z,99493.03
2019-01-24T16:26:05.795Z,99493.97
2019-01-24T16:28:35.324Z,99502.67
2019-01-24T16:31:04.945Z,99497.15
2019-01-24T16:33:34.578Z,99494.45
2019-01-24T16:36:04.072Z,99496.22
2019-01-24T16:38:33.608Z,99496.20
2019-01-24T16:41:05.416Z,99491.02
2019-01-24T16:43:34.914Z,99500.69
2019-01-24T16:46:05.146Z,99498.67
2019-01-24T16:48:34.703Z,99508.45
2019-01-24T16:51:04.254Z,99515.41
2019-01-24T16:53:33.775Z,99530.36
2019-01-24T16:56:03.279Z,99533.88
2019-01-24T16:58:32.957Z,99535.17
2019-01-24T17:01:14.404Z,99539.65
2019-01-24T17:03:45.201Z,99544.61
2019-01-24T17:06:14.722Z,99546.48
2019-01-24T17:08:44.631Z,99551.20
2019-01-24T17:11:14.289Z,99551.20
2019-01-24T17:13:43.827Z,99555.44
2019-01-24T17:16:13.350Z,99564.03
2019-01-24T17:18:42.903Z,99562.86
2019-01-24T17:21:12.415Z,99563.55
2019-01-24T17:23:42.047Z,99567.44
2019-01-24T17:26:11.626Z,99574.14
2019-01-24T17:28:41.143Z,99582.25
2019-01-24T17:31:10.664Z,99589.06
2019-01-24T17:33:40.329Z,99593.31
2019-01-24T17:36:11.298Z,99601.06
2019-01-24T17:38:40.830Z,99597.87
2019-01-24T17:41:10.406Z,99614.63
2019-01-24T17:43:40.021Z,99615.20
2019-01-24T17:46:09.682Z,99615.77
2019-01-24T17:48:39.182Z,99618.33
2019-01-24T17:51:08.701Z,99618.33
2019-01-24T17:53:38.265Z,99622.01
2019-01-24T17:56:07.978Z,99628.68
2019-01-24T17:58:37.487Z,99637.18
2019-01-24T18:01:07.394Z,99639.73
2019-01-24T18:03:36.924Z,99639.27
2019-01-24T18:06:07.162Z,99647.62
2019-01-24T18:08:36.739Z,99651.15
2019-01-24T18:11:06.616Z,99655.03
2019-01-24T18:13:36.215Z,99663.13
2019-01-24T18:16:06.384Z,99668.77
2019-01-24T18:18:38.007Z,99670.42
2019-01-24T18:21:09.598Z,99667.38
2019-01-24T18:23:40.657Z,99664.78
2019-01-24T18:26:10.406Z,99667.94
2019-01-24T18:28:40.256Z,99673.37
2019-01-24T18:31:10.222Z,99683.92
2019-01-24T18:33:40.133Z,99690.39
2019-01-24T18:36:10.634Z,99700.32
2019-01-24T18:38:40.558Z,99700.23
2019-01-24T18:41:10.445Z,99709.63
2019-01-24T18:43:40.253Z,99705.03
2019-01-24T18:46:10.989Z,99708.64
2019-01-24T18:48:40.509Z,99712.09
2019-01-24T18:51:10.113Z,99704.09
2019-01-24T18:53:39.662Z,99712.23
2019-01-24T18:56:09.200Z,99713.84
2019-01-24T18:58:38.839Z,99714.51
2019-01-24T19:01:08.370Z,99716.58
2019-01-24T19:03:37.934Z,99707.52
2019-01-24T19:06:08.920Z,99716.27
2019-01-24T19:08:38.454Z,99714.38
2019-01-24T19:11:08.089Z,99710.33
2019-01-24T19:13:37.789Z,99712.03
2019-01-24T19:16:07.868Z,99711.11
2019-01-24T19:18:37.412Z,99711.20
2019-01-24T19:21:07.170Z,99712.98
2019-01-24T19:23:36.876Z,99717.02
2019-01-24T19:26:06.489Z,99722.19
2019-01-24T19:28:36.042Z,99726.87
2019-01-24T19:31:05.652Z,99724.78
2019-01-24T19:33:35.199Z,99730.19
2019-01-24T19:36:05.078Z,99732.88
2019-01-24T19:38:34.599Z,99736.14
2019-01-24T19:41:04.229Z,99741.44
2019-01-24T19:43:33.799Z,99737.56
2019-01-24T19:46:03.281Z,99747.23
2019-01-24T19:48:33.847Z,99746.17
2019-01-24T19:51:04.666Z,99754.37
2019-01-24T19:53:34.519Z,99753.11
2019-01-24T19:56:04.169Z,99752.95
2019-01-24T19:58:33.934Z,99746.86
2019-01-24T20:01:03.468Z,99747.31
2019-01-24T20:03:33.066Z,99750.95
2019-01-24T20:06:02.636Z,99753.78
2019-01-24T20:08:32.169Z,99756.98
2019-01-24T20:11:02.957Z,99770.72
2019-01-24T20:13:32.495Z,99771.42
2019-01-24T20:16:02.003Z,99775.67
2019-01-24T20:18:31.559Z,99776.08
2019-01-24T20:21:01.090Z,99777.73
2019-01-24T20:23:30.624Z,99779.86
2019-01-24T20:26:00.220Z,99785.80
2019-01-24T20:28:29.749Z,99787.77
2019-01-24T20:30:59.423Z,99793.98
2019-01-24T20:33:28.940Z,99794.97
2019-01-24T20:35:59.644Z,99793.67
2019-01-24T20:38:29.222Z,99788.89
2019-01-24T20:40:58.740Z,99797.99
2019-01-24T20:43:35.182Z,99799.83
2019-01-24T20:45:59.687Z,99807.89
2019-01-24T20:48:29.221Z,99809.80
2019-01-24T20:50:58.743Z,99813.39
2019-01-24T20:53:28.329Z,99815.73
2019-01-24T20:55:57.877Z,99821.06
2019-01-24T20:58:27.415Z,99827.77
2019-01-24T21:00:57.002Z,99832.98
2019-01-24T21:03:26.545Z,99840.36
2019-01-24T21:05:56.074Z,99841.48
2019-01-24T21:08:25.655Z,99854.58
2019-01-24T21:10:55.229Z,99853.58
2019-01-24T21:13:24.778Z,99859.91
2019-01-24T21:15:54.371Z,99859.20
2019-01-24T21:18:23.890Z,99863.63
2019-01-24T21:20:53.407Z,99873.50
2019-01-24T21:23:23.108Z,99880.59
2019-01-24T21:25:52.687Z,99890.67
2019-01-24T21:28:22.208Z,99899.59
2019-01-24T21:30:51.750Z,99902.00
2019-01-24T21:33:21.360Z,99913.34
2019-01-24T21:35:50.899Z,99906.72
2019-01-24T21:38:20.467Z,99920.64
2019-01-24T21:40:50.074Z,99917.72
2019-01-24T21:43:19.587Z,99917.59
2019-01-24T21:45:49.158Z,99928.05
2019-01-24T21:48:19.782Z,99926.82
2019-01-24T21:50:49.529Z,99928.40
2019-01-24T21:53:19.075Z,99929.86
2019-01-24T21:55:48.592Z,99933.40
2019-01-24T21:58:18.176Z,99937.09
2019-01-24T22:00:47.736Z,99935.44
2019-01-24T22:03:17.252Z,99946.89
2019-01-24T22:05:48.166Z,99941.31
2019-01-24T22:08:17.705Z,99935.31
2019-01-24T22:10:47.238Z,99929.89
2019-01-24T22:13:16.882Z,99925.46
2019-01-24T22:15:46.607Z,99934.50
2019-01-24T22:18:16.123Z,99936.17
2019-01-24T22:20:46.574Z,99929.97
2019-01-24T22:23:16.101Z,99931.75
2019-01-24T22:25:45.816Z,99926.86
2019-01-24T22:28:15.411Z,99917.08
2019-01-24T22:30:49.301Z,99922.15
2019-01-24T22:33:18.826Z,99927.91
2019-01-24T22:35:48.368Z,99931.15
2019-01-24T22:38:17.968Z,99931.77
2019-01-24T22:40:47.597Z,99932.16
2019-01-24T22:43:17.100Z,99928.48
2019-01-24T22:45:46.647Z,99928.77
2019-01-24T22:48:16.202Z,99942.52
2019-01-24T22:50:45.712Z,99946.48
2019-01-24T22:53:15.217Z,99951.19
2019-01-24T22:55:44.793Z,99950.80
2019-01-24T22:58:14.351Z,99952.29
2019-01-24T23:01:15.863Z,99950.05
2019-01-24T23:03:53.128Z,99955.59
2019-01-24T23:06:22.631Z,99966.11
2019-01-24T23:08:52.151Z,99957.23
2019-01-24T23:11:21.691Z,99964.06
2019-01-24T23:13:51.210Z,99983.16
2019-01-24T23:16:20.741Z,99982.70
2019-01-24T23:18:50.298Z,99979.36
2019-01-24T23:21:19.813Z,99983.08
2019-01-24T23:23:49.363Z,99988.13
2019-01-24T23:26:18.915Z,99985.47
2019-01-24T23:28:48.432Z,99993.78
2019-01-24T23:31:17.964Z,100000.31
2019-01-24T23:33:47.534Z,100005.39
2019-01-24T23:36:17.028Z,100009.72
2019-01-24T23:38:46.538Z,100004.02
2019-01-24T23:41:16.054Z,100017.47
2019-01-24T23:43:45.549Z,100021.18
2019-01-24T23:46:15.126Z,100012.22
2019-01-24T23:48:44.817Z,100017.95
2019-01-24T23:51:14.319Z,100022.84
2019-01-24T23:53:43.873Z,100016.65
2019-01-24T23:56:13.369Z,100028.47
2019-01-24T23:58:42.915Z,100038.87
